createdAt,value
2022-08-22T00:02:31.081Z,56.01
2022-08-22T00:02:52.898Z,50.90
2022-08-22T00:02:53.140Z,51.08
2022-08-22T00:02:58.275Z,52.17
2022-08-22T00:02:59.458Z,52.17
2022-08-22T00:05:10.282Z,56.19
2022-08-22T00:07:48.220Z,56.19
2022-08-22T00:10:25.605Z,56.24
2022-08-22T00:13:01.569Z,56.26
2022-08-22T00:15:43.723Z,56.54
2022-08-22T00:18:22.310Z,56.33
2022-08-22T00:21:01.192Z,56.35
2022-08-22T00:23:36.790Z,56.54
2022-08-22T00:26:18.036Z,56.53
2022-08-22T00:28:50.276Z,56.55
2022-08-22T00:31:26.235Z,56.63
2022-08-22T00:34:03.042Z,56.51
2022-08-22T00:36:38.641Z,56.50
2022-08-22T00:39:16.846Z,56.65
2022-08-22T00:42:14.911Z,56.71
2022-08-22T00:45:43.671Z,56.89
2022-08-22T00:48:37.273Z,56.75
2022-08-22T00:51:22.385Z,57.01
2022-08-22T00:53:56.870Z,57.04
2022-08-22T00:56:52.671Z,57.06
2022-08-22T00:59:30.174Z,57.04
2022-08-22T01:02:12.916Z,57.11
2022-08-22T01:05:07.647Z,57.10
2022-08-22T01:07:57.036Z,57.23
2022-08-22T01:10:40.755Z,57.26
2022-08-22T01:13:32.216Z,57.32
2022-08-22T01:16:20.791Z,57.28
2022-08-22T01:19:09.576Z,57.31
2022-08-22T01:22:12.223Z,57.32
2022-08-22T01:25:26.373Z,57.45
2022-08-22T01:28:31.214Z,57.73
2022-08-22T01:31:43.844Z,57.54
2022-08-22T01:34:51.315Z,57.65
2022-08-22T01:38:02.564Z,57.48
2022-08-22T01:41:10.487Z,57.54
2022-08-22T01:44:01.180Z,57.61
2022-08-22T01:46:44.317Z,57.80
2022-08-22T01:49:20.823Z,57.76
2022-08-22T01:51:55.145Z,57.82
2022-08-22T01:54:34.341Z,57.86
2022-08-22T01:57:09.431Z,57.92
2022-08-22T01:59:42.504Z,57.79
2022-08-22T02:02:29.561Z,57.88
2022-08-22T02:05:06.256Z,57.90
2022-08-22T02:07:45.426Z,57.93
2022-08-22T02:10:20.920Z,57.92
2022-08-22T02:13:01.849Z,58.04
2022-08-22T02:15:46.870Z,58.07
2022-08-22T02:18:22.972Z,58.06
2022-08-22T02:21:08.809Z,58.15
2022-08-22T02:23:50.271Z,58.12
2022-08-22T02:26:25.765Z,58.23
2022-08-22T02:28:58.292Z,58.14
2022-08-22T02:31:40.487Z,58.28
2022-08-22T02:34:34.249Z,58.27
2022-08-22T02:37:09.654Z,58.23
2022-08-22T02:39:44.232Z,58.41
2022-08-22T02:42:28.328Z,58.46
2022-08-22T02:45:12.006Z,58.32
2022-08-22T02:47:49.970Z,58.55
2022-08-22T02:50:28.949Z,58.47
2022-08-22T02:53:05.428Z,58.43
2022-08-22T02:55:47.720Z,58.57
2022-08-22T02:58:26.277Z,58.65
2022-08-22T03:01:32.712Z,58.66
2022-08-22T03:04:21.777Z,58.89
2022-08-22T03:07:07.814Z,58.84
2022-08-22T03:09:41.411Z,58.68
2022-08-22T03:12:20.465Z,58.92
2022-08-22T03:15:00.594Z,58.85
2022-08-22T03:17:33.095Z,58.69
2022-08-22T03:20:06.111Z,58.79
2022-08-22T03:22:43.465Z,58.90
2022-08-22T03:25:30.157Z,58.82
2022-08-22T03:28:02.481Z,59.09
2022-08-22T03:30:38.113Z,58.83
2022-08-22T03:33:18.594Z,58.94
2022-08-22T03:36:01.786Z,58.86
2022-08-22T03:38:53.898Z,58.66
2022-08-22T03:41:54.386Z,58.73
2022-08-22T03:44:58.311Z,58.97
2022-08-22T03:47:51.346Z,59.10
2022-08-22T03:50:43.648Z,58.96
2022-08-22T03:53:53.679Z,59.03
2022-08-22T03:56:57.440Z,59.05
2022-08-22T03:59:48.894Z,59.11
2022-08-22T04:02:44.315Z,58.96
2022-08-22T04:05:41.444Z,59.00
2022-08-22T04:08:44.908Z,59.04
2022-08-22T04:11:31.111Z,58.96
2022-08-22T04:14:30.933Z,59.17
2022-08-22T04:17:36.956Z,59.02
2022-08-22T04:20:45.175Z,59.33
2022-08-22T04:23:55.911Z,59.43
2022-08-22T04:26:36.612Z,59.20
2022-08-22T04:29:08.719Z,59.28
2022-08-22T04:31:46.075Z,59.25
2022-08-22T04:34:21.026Z,59.05
2022-08-22T04:36:54.320Z,58.42
2022-08-22T04:39:30.285Z,58.01
2022-08-22T04:42:16.296Z,57.73
2022-08-22T04:44:57.122Z,57.06
2022-08-22T04:47:32.750Z,56.55
2022-08-22T04:50:06.828Z,55.81
2022-08-22T04:52:51.908Z,55.02
2022-08-22T04:55:28.876Z,54.08
2022-08-22T04:58:08.730Z,53.64
2022-08-22T05:00:41.494Z,53.49
2022-08-22T05:03:26.216Z,53.21
2022-08-22T05:05:59.375Z,52.76
2022-08-22T05:08:32.734Z,52.32
2022-08-22T05:11:07.581Z,52.11
2022-08-22T05:13:43.531Z,51.75
2022-08-22T05:16:18.839Z,51.16
2022-08-22T05:18:51.901Z,50.84
2022-08-22T05:21:28.518Z,50.53
2022-08-22T05:24:00.890Z,50.49
2022-08-22T05:26:35.399Z,49.91
2022-08-22T05:29:08.065Z,49.41
2022-08-22T05:31:41.919Z,48.93
2022-08-22T05:34:17.696Z,48.91
2022-08-22T05:36:51.811Z,48.38
2022-08-22T05:39:25.216Z,47.86
2022-08-22T05:41:59.222Z,47.33
2022-08-22T05:44:37.267Z,46.74
2022-08-22T05:47:19.715Z,46.38
2022-08-22T05:49:58.987Z,45.91
2022-08-22T05:52:41.756Z,45.74
2022-08-22T05:55:21.463Z,45.62
2022-08-22T05:57:55.673Z,45.01
2022-08-22T06:00:32.023Z,44.84
2022-08-22T06:03:11.257Z,44.55
2022-08-22T06:05:46.939Z,44.44
2022-08-22T06:08:24.414Z,44.00
2022-08-22T06:11:03.829Z,43.37
2022-08-22T06:13:41.271Z,42.53
2022-08-22T06:16:20.444Z,41.93
2022-08-22T06:18:51.628Z,41.46
2022-08-22T06:21:31.499Z,40.69
2022-08-22T06:24:05.408Z,39.59
2022-08-22T06:26:38.146Z,38.93
2022-08-22T06:29:09.219Z,38.21
2022-08-22T06:31:45.269Z,37.86
2022-08-22T06:34:16.297Z,36.96
2022-08-22T06:36:50.868Z,36.35
2022-08-22T06:39:23.146Z,35.45
2022-08-22T06:41:56.493Z,34.78
2022-08-22T06:44:31.657Z,34.08
2022-08-22T06:47:01.350Z,33.21
2022-08-22T06:49:33.935Z,32.77
2022-08-22T06:52:07.910Z,32.40
2022-08-22T06:54:40.174Z,32.25
2022-08-22T06:57:27.123Z,32.33
2022-08-22T06:59:57.179Z,32.25
2022-08-22T07:02:30.879Z,31.87
2022-08-22T07:04:59.758Z,31.23
2022-08-22T07:07:29.011Z,31.14
2022-08-22T07:09:57.824Z,31.34
2022-08-22T07:12:31.504Z,31.13
2022-08-22T07:15:10.219Z,30.80
2022-08-22T07:17:50.923Z,30.38
2022-08-22T07:20:27.565Z,30.02
2022-08-22T07:23:01.083Z,29.96
2022-08-22T07:25:31.980Z,29.88
2022-08-22T07:28:21.590Z,29.64
2022-08-22T07:31:17.881Z,29.08
2022-08-22T07:33:50.720Z,29.47
2022-08-22T07:36:31.759Z,29.88
2022-08-22T07:39:22.599Z,30.42
2022-08-22T07:42:12.887Z,31.10
2022-08-22T07:45:07.196Z,32.35
2022-08-22T07:48:00.139Z,33.44
2022-08-22T07:50:35.515Z,33.87
2022-08-22T07:53:13.907Z,34.00
2022-08-22T07:55:49.545Z,33.86
2022-08-22T07:58:21.777Z,33.63
2022-08-22T08:00:53.453Z,34.10
2022-08-22T08:03:25.568Z,34.62
2022-08-22T08:05:55.242Z,34.43
2022-08-22T08:08:30.483Z,34.53
2022-08-22T08:11:02.669Z,34.38
2022-08-22T08:13:40.882Z,34.71
2022-08-22T08:16:17.878Z,34.23
2022-08-22T08:18:49.419Z,34.34
2022-08-22T08:21:28.797Z,34.35
2022-08-22T08:24:00.729Z,34.93
2022-08-22T08:26:35.970Z,35.48
2022-08-22T08:29:06.914Z,35.45
2022-08-22T08:31:44.703Z,35.22
2022-08-22T08:34:19.853Z,35.75
2022-08-22T08:36:53.336Z,35.64
2022-08-22T08:39:35.561Z,35.33
2022-08-22T08:43:10.602Z,35.65
2022-08-22T08:45:59.027Z,36.54
2022-08-22T08:48:51.542Z,36.48
2022-08-22T08:51:46.725Z,36.17
2022-08-22T08:54:37.019Z,36.47
2022-08-22T08:57:17.767Z,36.83
2022-08-22T09:00:01.162Z,36.89
2022-08-22T09:03:06.894Z,36.25
2022-08-22T09:06:03.108Z,35.97
2022-08-22T09:12:17.591Z,37.35
2022-08-22T09:15:05.163Z,37.96
2022-08-22T09:17:56.089Z,38.75
2022-08-22T09:20:48.927Z,39.13
2022-08-22T09:24:04.145Z,39.45
2022-08-22T09:26:45.774Z,39.74
2022-08-22T09:29:54.447Z,40.10
2022-08-22T09:32:44.385Z,40.40
2022-08-22T09:35:24.658Z,40.10
2022-08-22T09:38:21.692Z,40.07
2022-08-22T09:40:15.394Z,36.64
2022-08-22T09:41:03.774Z,40.23
2022-08-22T09:43:41.825Z,40.56
2022-08-22T09:46:21.701Z,40.88
2022-08-22T09:49:07.199Z,40.41
2022-08-22T09:51:48.985Z,40.60
2022-08-22T09:54:31.269Z,40.79
2022-08-22T09:57:19.196Z,40.98
2022-08-22T10:00:23.423Z,40.76
2022-08-22T10:03:05.788Z,40.74
2022-08-22T10:05:45.053Z,40.97
2022-08-22T10:08:30.092Z,41.07
2022-08-22T10:11:18.623Z,40.84
2022-08-22T10:14:00.730Z,40.99
2022-08-22T10:17:08.137Z,41.33
2022-08-22T10:19:45.477Z,41.50
2022-08-22T10:22:35.011Z,41.94
2022-08-22T10:25:22.150Z,41.86
2022-08-22T10:28:17.779Z,41.56
2022-08-22T10:31:04.174Z,41.40
2022-08-22T10:33:41.149Z,41.64
2022-08-22T10:36:17.138Z,41.72
2022-08-22T10:38:52.099Z,41.51
2022-08-22T10:41:30.363Z,41.43
2022-08-22T10:44:05.054Z,41.97
2022-08-22T10:46:36.102Z,42.03
2022-08-22T10:49:09.285Z,42.19
2022-08-22T10:51:45.099Z,42.34
2022-08-22T10:54:42.209Z,42.40
2022-08-22T10:57:43.997Z,42.71
2022-08-22T11:00:31.641Z,42.91
2022-08-22T11:03:15.839Z,42.90
2022-08-22T11:05:53.301Z,43.22
2022-08-22T11:09:06.186Z,43.36
2022-08-22T11:11:42.233Z,43.75
2022-08-22T11:14:36.705Z,43.90
2022-08-22T11:17:30.941Z,44.00
2022-08-22T11:20:19.569Z,44.37
2022-08-22T11:23:08.011Z,44.55
2022-08-22T11:25:54.461Z,44.96
2022-08-22T11:28:37.243Z,44.95
2022-08-22T11:31:20.903Z,45.27
2022-08-22T11:33:55.199Z,45.62
2022-08-22T11:36:33.386Z,45.73
2022-08-22T11:39:13.767Z,45.97
2022-08-22T11:41:59.369Z,46.31
2022-08-22T11:44:32.275Z,46.10
2022-08-22T11:47:13.086Z,46.39
2022-08-22T11:50:00.183Z,46.27
2022-08-22T11:53:05.664Z,46.17
2022-08-22T11:55:42.822Z,46.14
2022-08-22T11:58:28.729Z,45.83
2022-08-22T12:01:02.964Z,45.55
2022-08-22T12:03:58.570Z,45.26
2022-08-22T12:06:58.077Z,45.43
2022-08-22T12:09:47.644Z,45.19
2022-08-22T12:12:35.885Z,45.07
2022-08-22T12:15:13.481Z,45.38
2022-08-22T12:18:40.919Z,45.62
2022-08-22T12:21:38.629Z,45.88
2022-08-22T12:24:25.494Z,45.91
2022-08-22T12:27:27.921Z,45.90
2022-08-22T12:30:14.404Z,45.60
2022-08-22T12:33:36.172Z,45.66
2022-08-22T12:36:27.842Z,45.53
2022-08-22T12:39:18.194Z,45.87
2022-08-22T12:42:13.611Z,46.03
2022-08-22T12:45:00.552Z,46.07
2022-08-22T12:48:01.303Z,45.82
2022-08-22T12:50:42.864Z,45.88
2022-08-22T12:53:40.689Z,45.77
2022-08-22T12:56:21.970Z,45.70
2022-08-22T12:59:20.982Z,45.89
2022-08-22T13:01:52.602Z,45.67
2022-08-22T13:04:33.003Z,45.61
2022-08-22T13:07:22.824Z,45.71
2022-08-22T13:10:00.719Z,45.89
2022-08-22T13:12:58.842Z,45.98
2022-08-22T13:15:32.556Z,45.88
2022-08-22T13:18:28.890Z,45.97
2022-08-22T13:21:01.472Z,45.97
2022-08-22T13:23:42.777Z,45.78
2022-08-22T13:26:31.684Z,45.66
2022-08-22T13:29:25.179Z,45.54
2022-08-22T13:32:02.293Z,45.68
2022-08-22T13:34:40.282Z,45.66
2022-08-22T13:37:16.837Z,45.69
2022-08-22T13:39:52.706Z,45.68
2022-08-22T13:42:30.510Z,45.67
2022-08-22T13:45:04.882Z,45.58
2022-08-22T13:47:50.090Z,45.60
2022-08-22T13:51:04.623Z,45.49
2022-08-22T13:53:42.384Z,45.46
2022-08-22T13:56:34.999Z,45.56
2022-08-22T13:59:49.663Z,45.42
2022-08-22T14:02:53.471Z,45.69
2022-08-22T14:08:34.629Z,45.64
2022-08-22T14:11:09.817Z,45.51
2022-08-22T14:13:45.327Z,45.34
2022-08-22T14:16:27.717Z,45.39
2022-08-22T14:19:05.953Z,45.43
2022-08-22T14:21:41.298Z,45.47
2022-08-22T14:24:16.831Z,45.58
2022-08-22T14:26:54.563Z,45.59
2022-08-22T14:29:34.639Z,45.65
2022-08-22T14:32:35.404Z,45.75
2022-08-22T14:35:23.150Z,45.67
2022-08-22T14:38:38.778Z,45.55
2022-08-22T14:41:13.655Z,45.69
2022-08-22T14:43:54.896Z,45.63
2022-08-22T14:46:29.588Z,45.71
2022-08-22T14:49:26.612Z,45.93
2022-08-22T14:52:09.453Z,45.83
2022-08-22T14:54:39.273Z,45.87
2022-08-22T14:57:20.481Z,45.78
2022-08-22T14:59:52.174Z,45.49
2022-08-22T15:02:27.931Z,45.69
2022-08-22T15:05:01.030Z,45.75
2022-08-22T15:07:32.959Z,45.71
2022-08-22T15:10:07.422Z,45.86
2022-08-22T15:12:47.814Z,46.03
2022-08-22T15:15:30.597Z,45.99
2022-08-22T15:17:59.759Z,45.77
2022-08-22T15:20:35.663Z,45.62
2022-08-22T15:23:20.423Z,45.97
2022-08-22T15:26:00.655Z,45.68
2022-08-22T15:28:33.734Z,45.80
2022-08-22T15:31:20.513Z,45.85
2022-08-22T15:33:49.693Z,45.80
2022-08-22T15:36:21.888Z,45.97
2022-08-22T15:38:52.426Z,45.84
2022-08-22T15:41:40.665Z,45.70
2022-08-22T15:44:32.525Z,45.96
2022-08-22T15:47:24.148Z,45.99
2022-08-22T15:49:59.354Z,45.92
2022-08-22T15:52:30.951Z,46.10
2022-08-22T15:55:24.288Z,45.99
2022-08-22T15:58:08.258Z,46.13
2022-08-22T16:00:45.098Z,46.16
2022-08-22T16:03:25.785Z,46.26
2022-08-22T16:05:58.751Z,46.31
2022-08-22T16:08:32.677Z,46.19
2022-08-22T16:11:33.001Z,46.06
2022-08-22T16:14:21.617Z,46.40
2022-08-22T16:17:01.885Z,46.47
2022-08-22T16:19:31.519Z,46.53
2022-08-22T16:22:06.563Z,46.70
2022-08-22T16:25:04.416Z,46.75
2022-08-22T16:27:34.169Z,46.77
2022-08-22T16:30:12.321Z,46.87
2022-08-22T16:32:52.678Z,46.82
2022-08-22T16:35:57.098Z,46.98
2022-08-22T16:38:36.624Z,47.00
2022-08-22T16:41:05.746Z,47.15
2022-08-22T16:43:34.595Z,47.18
2022-08-22T16:46:28.812Z,47.25
2022-08-22T16:49:05.211Z,47.29
2022-08-22T16:51:34.229Z,47.46
2022-08-22T16:54:10.427Z,47.59
2022-08-22T16:57:08.584Z,47.39
2022-08-22T16:59:51.932Z,47.42
2022-08-22T17:02:41.172Z,47.63
2022-08-22T17:05:24.609Z,47.79
2022-08-22T17:08:14.336Z,47.60
2022-08-22T17:10:52.479Z,47.62
2022-08-22T17:13:37.936Z,47.57
2022-08-22T17:16:23.633Z,47.80
2022-08-22T17:19:10.891Z,47.69
2022-08-22T17:21:51.749Z,47.73
2022-08-22T17:24:34.389Z,47.77
2022-08-22T17:28:03.062Z,47.73
2022-08-22T17:30:41.222Z,47.76
2022-08-22T17:33:28.043Z,47.91
2022-08-22T17:36:26.382Z,47.96
2022-08-22T17:43:49.439Z,48.00
2022-08-22T17:46:33.639Z,48.25
2022-08-22T17:49:15.932Z,48.32
2022-08-22T17:51:53.874Z,48.28
2022-08-22T17:54:33.157Z,48.43
2022-08-22T17:57:07.315Z,48.56
2022-08-22T17:59:51.731Z,48.55
2022-08-22T18:02:26.667Z,48.70
2022-08-22T18:05:03.608Z,48.64
2022-08-22T18:07:53.624Z,48.84
2022-08-22T18:10:46.419Z,48.83
2022-08-22T18:13:33.028Z,49.04
2022-08-22T18:16:07.161Z,48.99
2022-08-22T18:18:40.129Z,49.12
2022-08-22T18:21:39.045Z,49.13
2022-08-22T18:24:22.332Z,49.30
2022-08-22T18:26:58.308Z,49.40
2022-08-22T18:29:50.472Z,49.47
2022-08-22T18:32:28.673Z,49.55
2022-08-22T18:35:08.808Z,49.52
2022-08-22T18:37:50.111Z,49.57
2022-08-22T18:40:33.035Z,49.66
2022-08-22T18:43:14.085Z,49.65
2022-08-22T18:46:04.206Z,49.70
2022-08-22T18:48:59.251Z,49.85
2022-08-22T18:51:30.462Z,49.84
2022-08-22T19:02:56.237Z,50.21
2022-08-22T19:05:46.919Z,50.41
2022-08-22T19:09:03.574Z,50.43
2022-08-22T19:11:49.576Z,50.67
2022-08-22T19:14:53.196Z,50.68
2022-08-22T19:17:39.265Z,50.85
2022-08-22T19:20:37.658Z,50.94
2022-08-22T19:23:44.906Z,51.14
2022-08-22T19:26:44.002Z,51.22
2022-08-22T19:29:44.640Z,51.30
2022-08-22T19:32:50.937Z,51.54
2022-08-22T19:35:23.549Z,51.63
2022-08-22T19:37:54.143Z,51.69
2022-08-22T19:40:55.739Z,51.75
2022-08-22T19:43:36.128Z,51.94
2022-08-22T19:46:10.530Z,52.15
2022-08-22T19:48:49.665Z,52.08
2022-08-22T19:51:29.021Z,52.20
2022-08-22T19:54:16.753Z,52.30
2022-08-22T19:57:02.595Z,52.41
2022-08-22T19:59:50.975Z,52.47
2022-08-22T20:02:34.614Z,52.59
2022-08-22T20:05:26.953Z,52.62
2022-08-22T20:08:19.158Z,52.66
2022-08-22T20:11:04.039Z,52.97
2022-08-22T20:13:35.621Z,53.01
2022-08-22T20:16:12.861Z,53.14
2022-08-22T20:19:13.591Z,53.13
2022-08-22T20:21:48.555Z,53.28
2022-08-22T20:24:24.924Z,53.55
2022-08-22T20:27:14.582Z,53.55
2022-08-22T20:29:50.275Z,53.55
2022-08-22T20:32:21.727Z,53.87
2022-08-22T20:34:56.304Z,53.81
2022-08-22T20:37:45.303Z,53.82
2022-08-22T20:40:51.959Z,54.00
2022-08-22T20:43:28.330Z,54.27
2022-08-22T20:46:06.014Z,54.33
2022-08-22T20:48:39.111Z,54.51
2022-08-22T20:51:09.167Z,54.44
2022-08-22T20:53:38.062Z,54.63
2022-08-22T20:56:08.960Z,54.62
2022-08-22T20:58:39.945Z,54.67
2022-08-22T21:01:12.695Z,54.99
2022-08-22T21:03:45.770Z,55.02
2022-08-22T21:06:19.381Z,54.87
2022-08-22T21:09:11.675Z,55.08
2022-08-22T21:11:51.155Z,55.22
2022-08-22T21:14:22.772Z,55.19
2022-08-22T21:16:52.507Z,55.39
2022-08-22T21:19:26.449Z,55.47
2022-08-22T21:22:10.012Z,55.40
2022-08-22T21:24:38.692Z,55.60
2022-08-22T21:27:16.733Z,55.70
2022-08-22T21:29:53.629Z,55.70
2022-08-22T21:32:29.620Z,55.88
2022-08-22T21:34:58.848Z,55.95
2022-08-22T21:37:36.037Z,55.88
2022-08-22T21:40:14.830Z,55.95
2022-08-22T21:42:57.737Z,56.09
2022-08-22T21:45:30.741Z,56.20
2022-08-22T21:48:00.187Z,56.20
2022-08-22T21:50:37.636Z,56.44
2022-08-22T21:53:12.076Z,56.19
2022-08-22T21:55:46.132Z,56.50
2022-08-22T21:58:35.878Z,56.56
2022-08-22T22:01:29.014Z,56.59
2022-08-22T22:08:31.477Z,56.79
2022-08-22T22:11:04.718Z,56.95
2022-08-22T22:13:38.909Z,57.04
2022-08-22T22:16:09.047Z,57.12
2022-08-22T22:18:38.431Z,57.33
2022-08-22T22:21:07.602Z,57.12
2022-08-22T22:23:36.424Z,57.24
2022-08-22T22:26:05.977Z,57.38
2022-08-22T22:28:38.097Z,57.28
2022-08-22T22:31:07.879Z,57.37
2022-08-22T22:33:39.367Z,57.33
2022-08-22T22:36:12.716Z,57.52
2022-08-22T22:38:44.637Z,57.69
2022-08-22T22:41:13.832Z,57.66
2022-08-22T22:43:42.902Z,57.63
2022-08-22T22:46:11.869Z,57.56
2022-08-22T22:48:40.889Z,57.73
2022-08-22T22:51:11.762Z,57.97
2022-08-22T22:53:42.903Z,57.95
2022-08-22T22:56:15.953Z,58.07
2022-08-22T22:58:45.571Z,58.15
2022-08-22T23:01:18.753Z,58.23
2022-08-22T23:03:48.867Z,58.36
2022-08-22T23:10:24.011Z,58.55
2022-08-22T23:12:53.167Z,58.40
2022-08-22T23:15:21.871Z,58.59
2022-08-22T23:17:50.700Z,58.64
2022-08-22T23:20:19.913Z,58.83
2022-08-22T23:22:48.776Z,58.94
2022-08-22T23:25:17.336Z,59.03
2022-08-22T23:27:52.332Z,59.17
2022-08-22T23:30:22.333Z,58.99
2022-08-22T23:32:50.979Z,59.27
2022-08-22T23:35:22.083Z,59.12
2022-08-22T23:38:19.994Z,59.44
2022-08-22T23:40:49.430Z,59.25
2022-08-22T23:43:18.070Z,59.53
2022-08-22T23:45:46.529Z,59.41
2022-08-22T23:48:15.011Z,59.54
2022-08-22T23:50:43.572Z,59.38
2022-08-22T23:53:14.547Z,59.67
2022-08-22T23:55:42.981Z,59.59
2022-08-22T23:58:11.669Z,59.81
